METAR Data
IDs: Format: Raw Decoded Include TAF

Data at: 0207 UTC 25 Mar 2019

KFLY 250155Z AUTO 34004KT 10SM SCT120 03/01 A3018 RMK AO2 T00260008
KFLY 250135Z AUTO 35008KT 10SM SCT120 03/01 A3018 RMK AO2 LTG DSNT SE T00330008
KFLY 250115Z AUTO 34010G15KT 10SM CLR 04/01 A3017 RMK AO2 T00400007
KFLY 250055Z AUTO 36009G15KT 310V010 10SM SCT110 05/01 A3016 RMK AO2 T00470012
KFLY 250035Z AUTO 33007KT 310V010 10SM OVC100 05/02 A3016 RMK AO2 T00500019
KFLY 250015Z AUTO 35007KT 10SM SCT016 SCT026 BKN100 04/02 A3015 RMK AO2 T00410016
KFLY 242355Z AUTO 35008KT 10SM -RA SCT013 BKN020 OVC041 04/01 A3015 RMK AO2 T00410008 10124 20039
KFLY 242335Z AUTO 26015G20KT 10SM RA SCT012 BKN033 OVC045 05/00 A3015 RMK AO2 T00461001
KFLY 242315Z AUTO 22020G28KT 180V250 10SM SCT034 BKN060 OVC080 08/M03 A3014 RMK AO2 T00791035
KFLY 242255Z AUTO 17012KT 10SM SCT047 BKN080 OVC090 09/M06 A3011 RMK AO2 T00921059
KFLY 242235Z AUTO 18008KT 10SM SCT055 BKN090 10/M06 A3010 RMK AO2 T00991062
KFLY 242215Z AUTO 18011G17KT 10SM BKN055 BKN100 12/M06 A3009 RMK AO2 T01161056
KFLY 242155Z AUTO 19010G18KT 10SM VCTS OVC055 12/M06 A3009 RMK AO2 T01211058
KFLY 242135Z AUTO 18009G18KT 10SM BKN055 12/M06 A3009 RMK AO2 T01171061
KFLY 242115Z AUTO 15009G16KT 10SM BKN055 BKN080 12/M06 A3009 RMK AO2 T01211057
KFLY 242055Z AUTO 13010G14KT 10SM SCT048 OVC060 10/M06 A3010 RMK AO2 T00951060
KFLY 242035Z AUTO 15007G21KT 10SM OVC050 11/M06 A3010 RMK AO2 T01081059
KFLY 242015Z AUTO 19007G15KT 10SM BKN055 BKN070 10/M06 A3010 RMK AO2 T00961061
KFLY 241955Z AUTO 11012G18KT 10SM BKN055 BKN070 10/M05 A3010 RMK AO2 T01021053
KFLY 241935Z AUTO 13007G14KT 090V180 10SM OVC060 09/M06 A3011 RMK AO2 T00911064
KFLY 241915Z AUTO 13012G17KT 10SM SCT060 OVC070 10/M06 A3011 RMK AO2 T01011065
KFLY 241855Z AUTO 14010G15KT 10SM SCT060 SCT070 11/M06 A3011 RMK AO2 T01091065
KFLY 241835Z AUTO 10006KT 10SM CLR 11/M08 A3011 RMK AO2 T01061077
KFLY 241815Z AUTO 07008KT 020V080 10SM CLR 11/M08 A3012 RMK AO2 T01071081
KFLY 241755Z AUTO 14005KT 10SM CLR 10/M08 A3012 RMK AO2 T00991081 10102 21032
KFLY 241735Z AUTO 13007KT 090V180 10SM CLR 10/M08 A3012 RMK AO2 T00991085
KFLY 241715Z AUTO 13008G17KT 10SM CLR 10/M08 A3012 RMK AO2 T01001085
KFLY 241655Z AUTO 12005KT 10SM CLR 09/M09 A3012 RMK AO2 T00921088
KFLY 241635Z AUTO 11005KT 10SM CLR 09/M09 A3012 RMK AO2 T00901093
KFLY 241615Z AUTO 08006G16KT 10SM CLR 09/M09 A3012 RMK AO2 T00881088
KFLY 241555Z AUTO 03005KT 10SM CLR 08/M09 A3013 RMK AO2 T00821091
KFLY 241535Z AUTO 06006KT 10SM CLR 08/M08 A3012 RMK AO2 T00781081
KFLY 241515Z AUTO 05006KT 10SM CLR 07/M06 A3012 RMK AO2 T00721065
KFLY 241455Z AUTO 05003KT 10SM CLR 07/M05 A3012 RMK AO2 T00651048
KFLY 241435Z AUTO 00000KT 10SM CLR 04/M02 A3011 RMK AO2 T00421021
KFLY 241415Z AUTO 00000KT 10SM CLR 03/M02 A3011 RMK AO2 T00251016
KFLY 241355Z AUTO 31005KT 10SM CLR 02/M04 A3010 RMK AO2 T00151044
KFLY 241335Z AUTO 33005KT 10SM CLR 00/M06 A3008 RMK AO2 T00001060
KFLY 241315Z AUTO 00000KT 10SM CLR M01/M06 A3008 RMK AO2 T10151064
KFLY 241255Z AUTO 00000KT 10SM CLR M02/M06 A3008 RMK AO2 T10201061
KFLY 241235Z AUTO 00000KT 10SM CLR M02/M06 A3008 RMK AO2 T10241059
KFLY 241215Z AUTO 00000KT 10SM CLR M03/M04 A3007 RMK AO2 T10311038
KFLY 241155Z AUTO 25003KT 10SM CLR M02/M03 A3006 RMK AO2 7//// T10251028 10003 21039
KFLY 241135Z AUTO 23004KT 7SM CLR M04/M04 A3006 RMK AO2 T10391042
KFLY 241115Z AUTO 28008KT 7SM SCT001 M03/M03 A3006 RMK AO2 T10331035
KFLY 241055Z AUTO 33003KT 1/2SM FZFG OVC001 M02/M02 A3006 RMK AO2 T10221024
KFLY 241035Z AUTO 32003KT 1/4SM FZFG OVC001 M01/M01 A3006 RMK AO2 T10121015
KFLY 241015Z AUTO 29004KT 270V330 3/4SM BR OVC003 00/00 A3006 RMK AO2 T10021005
KFLY 240955Z AUTO 25003KT 1 1/2SM BR OVC003 00/00 A3006 RMK AO2 T00001002
KFLY 240935Z AUTO 26005KT 4SM BR OVC003 00/00 A3006 RMK AO2 T00010000
KFLY 240915Z AUTO 24006KT 7SM OVC005 00/00 A3007 RMK AO2 T00020000
KFLY 240855Z AUTO 24007KT 7SM OVC005 00/00 A3007 RMK AO2 T00020000
KFLY 240835Z AUTO 24006KT 7SM OVC005 00/M01 A3007 RMK AO2 T10031007
KFLY 240815Z AUTO 27007KT 10SM BKN005 M01/M01 A3007 RMK AO2 T10071012
KFLY 240755Z AUTO 25006KT 10SM CLR M02/M02 A3008 RMK AO2 T10181025
KFLY 240735Z AUTO 23005KT 10SM CLR M01/M02 A3008 RMK AO2 T10131025
KFLY 240715Z AUTO 24005KT 10SM CLR M02/M03 A3006 RMK AO2 T10251031
KFLY 240655Z AUTO 35004KT 10SM CLR M03/M03 A3007 RMK AO2 T10291035
KFLY 240635Z AUTO 32003KT 10SM CLR M03/M04 A3007 RMK AO2 T10291039
KFLY 240615Z AUTO 00000KT 10SM CLR M02/M02 A3007 RMK AO2 T10191025
KFLY 240555Z AUTO 00000KT 10SM CLR M02/M03 A3007 RMK AO2 T10241031 10040 21028
KFLY 240535Z AUTO 33003KT 10SM CLR M02/M02 A3007 RMK AO2 T10161022
KFLY 240515Z AUTO 33003KT 10SM CLR M02/M03 A3008 RMK AO2 T10191029
KFLY 240455Z AUTO 00000KT 7SM CLR 00/M01 A3008 RMK AO2 T10041012
KFLY 240435Z AUTO 36003KT 10SM CLR M01/M02 A3008 RMK AO2 T10101016
KFLY 240415Z AUTO 21006KT 10SM CLR 00/M01 A3008 RMK AO2 T10011011
KFLY 240355Z AUTO 34006KT 10SM CLR M01/M02 A3008 RMK AO2 T10081016
KFLY 240335Z AUTO 01008KT 10SM CLR 00/M01 A3007 RMK AO2 T10031011
KFLY 240315Z AUTO 02005KT 10SM CLR 00/M01 A3006 RMK AO2 T00001010
KFLY 240255Z AUTO 35004KT 10SM SCT011 01/00 A3006 RMK AO2 T00051005
KFLY 240235Z AUTO 02011G16KT 330V030 10SM BKN013 01/00 A3005 RMK AO2 T00091001
KFLY 240215Z AUTO 35008G14KT 300V030 10SM OVC015 02/00 A3004 RMK AO2 T00150000
KFLY 240155Z AUTO 02013G17KT 320V030 10SM OVC015 02/00 A3003 RMK AO2 T00170000
KFLY 240135Z AUTO 36009G16KT 320V020 10SM OVC013 02/00 A3002 RMK AO2 T00211003
KFLY 240115Z AUTO 01011G17KT 320V030 10SM OVC013 03/00 A3002 RMK AO2 T00251005
KFLY 240055Z AUTO 35009G17KT 320V020 10SM OVC013 03/00 A3002 RMK AO2 T00251004
KFLY 240035Z AUTO 01015G20KT 10SM OVC013 03/00 A2999 RMK AO2 T00281005
KFLY 240015Z AUTO 01017G27KT 10SM BKN013 03/00 A2999 RMK AO2 T00331005
KFLY 232355Z AUTO 03012G19KT 10SM BKN013 BKN070 BKN090 04/00 A2999 RMK AO2 T00351004 10096 20035
KFLY 232335Z AUTO 02014G18KT 10SM SCT015 SCT070 BKN120 04/00 A2998 RMK AO2 T00411002
KFLY 232315Z AUTO 01014G21KT 10SM BKN120 05/00 A2997 RMK AO2 T00471003
KFLY 232255Z AUTO 01014G21KT 10SM SCT016 SCT090 OVC120 06/00 A2996 RMK AO2 T00641002
KFLY 232235Z AUTO 36014G19KT 10SM SCT016 SCT090 OVC120 06/00 A2996 RMK AO2 T00641003
KFLY 232215Z AUTO 03014G21KT 10SM BKN110 06/00 A2995 RMK AO2 T00571002
KFLY 232155Z AUTO 02015G20KT 10SM SCT016 SCT090 BKN120 06/00 A2994 RMK AO2 T00551005
KFLY 232135Z AUTO 03013G20KT 10SM SCT014 SCT090 SCT120 07/00 A2994 RMK AO2 T00680000
KFLY 232115Z AUTO 02014G18KT 10SM SCT080 07/00 A2993 RMK AO2 T00721001
KFLY 232055Z AUTO 03012G20KT 10SM OVC080 07/00 A2994 RMK AO2 T00671003
KFLY 232035Z AUTO 03013G16KT 10SM BKN090 08/01 A2993 RMK AO2 T00780005
KFLY 232015Z AUTO 01008G17KT 10SM CLR 09/M05 A2993 RMK AO2 T00921048
KFLY 231955Z AUTO 36010G17KT 310V010 10SM SCT050 09/M06 A2993 RMK AO2 T00901063
KFLY 231935Z AUTO 03003KT 10SM SCT050 09/M04 A2993 RMK AO2 T00911041
KFLY 231915Z AUTO 26006KT 10SM CLR 09/M03 A2993 RMK AO2 T00861032
KFLY 231855Z AUTO 19007KT 10SM CLR 08/M01 A2993 RMK AO2 T00811012
KFLY 231835Z AUTO 00000KT 10SM SCT100 07/00 A2994 RMK AO2 T00740000
KFLY 231815Z AUTO 00000KT 10SM SCT090 06/00 A2994 RMK AO2 T00550001
KFLY 231755Z AUTO 09003KT 10SM OVC090 04/00 A2994 RMK AO2 6//// T00441001
KFLY 231735Z AUTO 09008KT 10SM BKN090 03/00 A2995 RMK AO2 T00341002
KFLY 231715Z AUTO 10010KT 10SM SCT090 03/M01 A2996 RMK AO2 T00341006
KFLY 231655Z AUTO 06004KT 10SM BKN090 03/M01 A2996 RMK AO2 T00271011
KFLY 231635Z AUTO 03008KT 10SM SCT080 03/M01 A2996 RMK AO2 T00291011
KFLY 231615Z AUTO 01007KT 10SM CLR 03/M01 A2995 RMK AO2 T00281010